DuBois Regional Airport
KDUJ : now visible

Airfield :











YOU CAN JOIN US ON...

 
LOGIN :

Register | Disclaimer

   EN    FR    IT 

 









Legend :    VFR   Marginal VFR   IFR   Intensive IFR   Very Intensive IFR
Visi :
Ceiling :
>= 8 km
>= 3000ft
5 to 8 km
1000 to 3000 ft
1500m to 5 km
500 to 1000 ft
800 to 1500m
200 to 500 ft
< 800m
< 200 ft
Symbols :   Thunderstorms  Fog  Heavy snow  Heavy precipitations  Wind > 20 kt






- Airport Elevation : 1817 ft
- IATA code : DUJ


KDUJ - DuBois Regional

CURRENT METAR :
  • 151353Z AUTO 22007KT 10SM OVC015 24/19 A3000 RMK AO2 SLP143 T02390189

EXPIRED METARs :
  • 151329Z AUTO 24008KT 10SM OVC015 23/18 A3001 RMK AO2 T02330183
  • 151253Z AUTO 23010KT 10SM OVC014 23/18 A3001 RMK AO2 SLP147 T02280183
  • 151226Z AUTO 23007KT 10SM OVC015 23/18 A3001 RMK AO2 T02280183
  • 151201Z AUTO 23007KT 10SM BKN014 BKN025 BKN038 22/18 A3001 RMK AO2 T02220183
  • 151133Z AUTO 22007KT 10SM SCT015 BKN028 OVC037 22/18 A3000 RMK AO2 T02170178
  • 151053Z AUTO 23006KT 10SM OVC044 21/18 A3000 RMK AO2 SLP142 T02110178
  • 150953Z AUTO 24006KT 10SM CLR 20/17 A2999 RMK AO2 SLP140 T02000172

TAF KDUJ
Valid from the 15 at 12:00 until the 16 at 12:00 UTC


151122Z 1512/1612 23007KT P6SM VCSH SCT040 BKN100
TEMPO 1512/1515 6SM -SHRA BKN025
FM151500 24010G18KT P6SM SCT050 BKN150
TEMPO 1521/1601 3SM TSRA BKN040CB
FM160100 25004KT P6SM VCSH SCT040 BKN100
PROB30 1610/1612 6SM -TSRA BKN035CB
KZOB FIR / North America



MET'MAP, your aeronautical weather chart ! - Copyright ORBIFLY December 2007 - Disclaimer

ORBIFLY MET'MAP TEAM :

Programming & Development : Alexandra Zaïnal
Original concept : Baudouin d'Aumeries
Technical & hardware support : Manuel Goepfert
Assistance : Marc-Olivier Méhu




SOURCES & CREDITS :

   NOAA       Earth
Advisory